Time;durP1;ratioP1;P1;durP2;ratioP2;P2;SDS_P1;SDS_P2;PMS_P1;PMS_P2;Temp;Humidity;BMP_temperature;BMP_pressure;BME280_temperature;BME280_humidity;BME280_pressure;Samples;Min_cycle;Max_cycle;Signal;HPM_P1;HPM_P2
2022/12/03 00:02:25;;;;;;;45.60;15.00;;;;;;;-2.36;100.00;99825.50;4220787;34;20213;-69
2022/12/03 00:04:52;;;;;;;46.72;14.07;;;;;;;-2.19;100.00;99847.59;4212284;34;20048;-69
2022/12/03 00:07:18;;;;;;;44.60;14.45;;;;;;;-2.02;100.00;99838.09;4208998;34;20418;-70
2022/12/03 00:09:44;;;;;;;26.95;10.15;;;;;;;-1.90;100.00;99836.91;4218161;34;20153;-69
2022/12/03 00:12:11;;;;;;;33.13;11.18;;;;;;;-1.94;100.00;99834.72;4222657;34;20062;-69
2022/12/03 00:14:37;;;;;;;47.08;15.50;;;;;;;-1.89;100.00;99827.16;4223829;34;20039;-69
2022/12/03 00:17:04;;;;;;;34.97;14.80;;;;;;;-1.84;100.00;99827.53;4223225;34;20084;-69
2022/12/03 00:19:30;;;;;;;48.80;14.73;;;;;;;-2.07;100.00;99804.22;4223796;34;20531;-69
2022/12/03 00:21:57;;;;;;;42.42;12.37;;;;;;;-2.26;100.00;99799.88;4194677;34;20055;-69
2022/12/03 00:24:23;;;;;;;39.80;14.52;;;;;;;-1.93;100.00;99837.19;4172043;34;20104;-70
2022/12/03 00:26:50;;;;;;;42.60;14.35;;;;;;;-1.77;100.00;99846.25;4167626;34;20412;-69
2022/12/03 00:29:16;;;;;;;43.15;15.40;;;;;;;-1.94;100.00;99846.09;4168350;34;20106;-69
2022/12/03 00:31:44;;;;;;;39.15;12.77;;;;;;;-2.29;100.00;99789.63;4168742;34;20101;-69
2022/12/03 00:34:10;;;;;;;40.80;13.40;;;;;;;-2.13;100.00;99846.22;4166664;34;20066;-70
2022/12/03 00:36:37;;;;;;;54.25;15.80;;;;;;;-2.06;100.00;99812.94;4167240;34;20060;-69
2022/12/03 00:39:03;;;;;;;44.90;15.10;;;;;;;-2.06;100.00;99837.56;4168703;34;20410;-69
2022/12/03 00:41:30;;;;;;;38.40;14.07;;;;;;;-2.08;100.00;99838.66;4168088;34;20062;-69
2022/12/03 00:43:56;;;;;;;39.92;14.07;;;;;;;-2.41;100.00;99796.94;4168656;34;20037;-70
2022/12/03 00:46:26;;;;;;;44.38;15.65;;;;;;;-2.69;100.00;99774.97;4165958;34;20083;-69
2022/12/03 00:48:52;;;;;;;43.92;14.98;;;;;;;-1.90;100.00;99842.19;4167781;34;20191;-69
2022/12/03 00:51:19;;;;;;;36.70;11.50;;;;;;;-1.98;100.00;99818.31;4168237;34;20057;-69
2022/12/03 00:53:45;;;;;;;43.92;12.50;;;;;;;-1.81;100.00;99839.63;4189759;34;20482;-69
2022/12/03 00:56:12;;;;;;;33.50;14.45;;;;;;;-1.66;100.00;99841.59;4214640;34;20065;-68
2022/12/03 00:58:38;;;;;;;51.67;16.50;;;;;;;-1.70;100.00;99832.28;4222940;33;20064;-68
2022/12/03 03:02:27;;;;;;;61.33;17.40;;;;;;;-1.58;100.00;99809.16;4306946;28;21017;-69
2022/12/03 03:04:54;;;;;;;57.67;18.10;;;;;;;-1.81;100.00;99815.84;4281397;33;20464;-70
2022/12/03 03:07:21;;;;;;;48.22;17.45;;;;;;;-1.53;100.00;99806.88;4281324;33;20049;-69
2022/12/03 03:09:48;;;;;;;56.60;17.95;;;;;;;-1.62;100.00;99797.22;4283128;33;20046;-69
2022/12/03 03:12:21;;;;;;;61.90;18.37;;;;;;;-1.83;100.00;99798.34;4253497;33;20075;-70
2022/12/03 03:14:48;;;;;;;48.58;15.82;;;;;;;-1.81;100.00;99797.38;4254389;33;20035;-69
2022/12/03 03:17:14;;;;;;;63.70;18.00;;;;;;;-1.89;100.00;99767.25;4254041;33;20455;-69
2022/12/03 03:19:41;;;;;;;48.80;18.00;;;;;;;-1.98;100.00;99739.12;4241874;33;20030;-69
2022/12/03 03:22:10;;;;;;;52.40;17.87;;;;;;;-1.67;100.00;99800.31;4222414;33;20031;-68
2022/12/03 03:24:37;;;;;;;48.78;16.87;;;;;;;-1.67;100.00;99799.47;4198158;34;20123;-68
2022/12/03 03:27:04;;;;;;;68.18;19.85;;;;;;;-2.00;100.00;99778.06;4197469;34;20065;-69
2022/12/03 03:29:31;;;;;;;59.30;19.02;;;;;;;-1.76;100.00;99789.81;4197170;34;20163;-69
2022/12/03 03:32:00;;;;;;;63.38;19.48;;;;;;;-1.79;100.00;99790.13;4195389;34;20067;-69
2022/12/03 03:34:27;;;;;;;52.80;18.37;;;;;;;-1.69;100.00;99796.16;4197141;34;20061;-70
2022/12/03 03:36:54;;;;;;;59.22;19.73;;;;;;;-1.61;100.00;99801.53;4197206;34;20405;-70
2022/12/03 03:39:21;;;;;;;57.35;18.23;;;;;;;-1.53;100.00;99801.59;4171473;34;20183;-70
2022/12/03 03:41:47;;;;;;;60.17;19.33;;;;;;;-1.75;100.00;99788.84;4156249;34;20053;-70
2022/12/03 03:44:14;;;;;;;64.70;19.27;;;;;;;-2.03;100.00;99758.09;4153331;34;20044;-70
2022/12/03 03:46:41;;;;;;;57.88;17.90;;;;;;;-1.69;100.00;99796.16;4156371;34;20464;-69
2022/12/03 03:49:09;;;;;;;51.60;18.15;;;;;;;-1.68;100.00;99756.38;4145957;34;20056;-70
2022/12/03 03:51:36;;;;;;;59.92;18.12;;;;;;;-1.69;100.00;99764.47;4156748;34;20059;-69
2022/12/03 03:54:04;;;;;;;67.62;20.17;;;;;;;-1.66;100.00;99785.28;4172770;34;20427;-68
2022/12/03 03:56:32;;;;;;;52.00;19.77;;;;;;;-1.54;100.00;99778.78;4201019;34;20451;-69
2022/12/03 03:58:59;;;;;;;64.68;19.48;;;;;;;-1.57;100.00;99773.81;4211358;34;20046;-69
2022/12/03 04:01:26;;;;;;;61.42;18.23;;;;;;;-1.51;100.00;99782.94;4210048;34;20109;-69
2022/12/03 04:03:53;;;;;;;56.35;17.10;;;;;;;-1.73;100.00;99736.72;4211306;34;20061;-69
2022/12/03 04:06:20;;;;;;;52.05;17.12;;;;;;;-1.80;100.00;99735.66;4202275;34;20036;-69
2022/12/03 04:08:46;;;;;;;56.97;17.98;;;;;;;-1.55;100.00;99779.75;4183612;34;20077;-69
2022/12/03 04:14:04;;;;;;;56.83;17.75;;;;;;;-1.68;100.00;99745.00;4192863;34;20069;-69
2022/12/03 04:16:31;;;;;;;56.90;18.62;;;;;;;-1.72;100.00;99738.38;4205708;34;20068;-69
2022/12/03 04:18:57;;;;;;;49.10;18.92;;;;;;;-1.50;100.00;99774.88;4197043;34;20051;-69
2022/12/03 04:24:10;;;;;;;56.42;18.95;;;;;;;-1.87;100.00;99736.28;4195330;34;20213;-69
2022/12/03 04:29:22;;;;;;;58.58;17.90;;;;;;;-1.53;100.00;99763.75;4223975;34;20047;-69
2022/12/03 04:37:19;;;;;;;46.13;17.70;;;;;;;-1.63;100.00;99769.12;4222950;34;20077;-69
2022/12/03 04:39:46;;;;;;;44.35;19.05;;;;;;;-1.84;100.00;99730.69;4237147;33;20054;-69
2022/12/03 04:42:12;;;;;;;51.03;17.90;;;;;;;-1.87;100.00;99736.28;4252321;33;20491;-69
2022/12/03 04:44:39;;;;;;;43.85;18.77;;;;;;;-1.59;100.00;99770.50;4252336;33;20472;-69
2022/12/03 04:47:05;;;;;;;39.15;15.65;;;;;;;-1.70;100.00;99742.50;4223911;34;20058;-69
2022/12/03 04:49:33;;;;;;;49.85;17.77;;;;;;;-1.37;100.00;99769.19;4229179;33;20042;-69
2022/12/03 04:52:00;;;;;;;48.60;18.73;;;;;;;-1.55;100.00;99750.69;4223957;34;20263;-70
2022/12/03 04:54:27;;;;;;;47.03;18.40;;;;;;;-1.79;100.00;99737.31;4224541;34;20047;-70
2022/12/03 04:56:53;;;;;;;49.28;16.17;;;;;;;-1.46;100.00;99757.72;4223164;34;20060;-70
2022/12/03 04:59:20;;;;;;;39.25;16.25;;;;;;;-1.67;100.00;99744.03;4222953;34;20113;-69
2022/12/03 05:01:47;;;;;;;47.78;17.42;;;;;;;-1.62;100.00;99765.53;4223317;34;20047;-70
2022/12/03 05:04:14;;;;;;;43.22;17.25;;;;;;;-1.61;100.00;99730.22;4224650;34;20114;-69
2022/12/03 05:06:47;;;;;;;42.88;15.07;;;;;;;-1.58;100.00;99761.59;4224063;34;20451;-71
2022/12/03 05:09:14;;;;;;;47.58;18.52;;;;;;;-1.33;100.00;99759.13;4222479;34;20447;-69
2022/12/03 05:11:41;;;;;;;47.28;16.98;;;;;;;-1.36;100.00;99759.44;4223452;34;20085;-70
2022/12/03 05:14:08;;;;;;;48.70;17.33;;;;;;;-1.32;100.00;99758.16;4224449;34;20102;-69
2022/12/03 05:16:36;;;;;;;45.75;16.50;;;;;;;-1.40;100.00;99764.22;4223854;34;20137;-70
2022/12/03 05:19:05;;;;;;;57.25;18.45;;;;;;;-1.43;100.00;99759.22;4236015;33;20207;-70
2022/12/03 05:21:31;;;;;;;52.30;19.10;;;;;;;-1.31;100.00;99751.88;4236194;33;20038;-69
2022/12/03 05:23:58;;;;;;;51.95;18.55;;;;;;;-1.29;100.00;99755.22;4277053;33;20053;-70
2022/12/03 05:26:24;;;;;;;39.20;16.67;;;;;;;-1.55;100.00;99750.69;4282506;33;20045;-70
2022/12/03 05:28:51;;;;;;;51.78;19.52;;;;;;;-1.53;100.00;99754.03;4283063;33;20037;-70
2022/12/03 05:31:17;;;;;;;41.97;16.98;;;;;;;-1.33;100.00;99759.13;4278628;33;20041;-69
2022/12/03 05:33:44;;;;;;;44.53;17.50;;;;;;;-1.67;100.00;99722.91;4252462;33;20058;-70
2022/12/03 05:36:10;;;;;;;47.45;16.75;;;;;;;-1.43;100.00;99750.50;4251365;33;20064;-69
2022/12/03 05:38:37;;;;;;;53.58;16.80;;;;;;;-1.46;100.00;99760.34;4252269;33;20038;-69
2022/12/03 05:42:52;;;;;;;48.17;16.48;;;;;;;-1.35;100.00;99761.09;4251672;33;20397;-69
2022/12/03 05:43:54;;;;;;;45.47;16.98;;;;;;;-1.43;100.00;99732.00;4251937;33;20030;-70
2022/12/03 05:46:20;;;;;;;51.10;17.90;;;;;;;-1.49;100.00;99731.59;4251605;33;20509;-70
2022/12/03 05:48:46;;;;;;;42.58;16.30;;;;;;;-1.37;100.00;99726.06;4251750;33;20181;-70
2022/12/03 05:51:13;;;;;;;47.90;18.00;;;;;;;-1.24;100.00;99721.22;4249461;33;20062;-69
2022/12/03 05:53:39;;;;;;;52.10;17.58;;;;;;;-1.26;100.00;99765.47;4251966;33;20090;-69
2022/12/03 05:56:06;;;;;;;43.85;17.98;;;;;;;-1.42;100.00;99760.06;4251517;33;20399;-70
2022/12/03 05:58:33;;;;;;;46.65;18.62;;;;;;;-1.11;100.00;99761.25;4250158;33;20369;-70
2022/12/03 06:00:59;;;;;;;56.00;18.15;;;;;;;-1.28;100.00;99762.13;4222809;34;20114;-69
2022/12/03 06:03:25;;;;;;;51.30;18.25;;;;;;;-1.42;100.00;99763.53;4222210;34;20042;-70
2022/12/03 06:05:52;;;;;;;51.05;17.17;;;;;;;-1.51;100.00;99761.81;4250010;33;20130;-69
2022/12/03 06:08:18;;;;;;;46.90;17.87;;;;;;;-1.28;100.00;99762.13;4251538;33;20046;-70
2022/12/03 06:10:45;;;;;;;49.70;17.60;;;;;;;-1.18;100.00;99770.81;4251830;33;20038;-70
2022/12/03 06:13:11;;;;;;;47.97;18.73;;;;;;;-1.08;100.00;99761.94;4249298;33;20060;-69
2022/12/03 06:15:37;;;;;;;58.30;19.83;;;;;;;-1.19;100.00;99761.22;4250987;33;20025;-70
2022/12/03 06:18:04;;;;;;;52.33;18.25;;;;;;;-1.24;100.00;99763.50;4251735;33;20063;-70
2022/12/03 06:20:30;;;;;;;51.28;16.95;;;;;;;-1.11;100.00;99761.25;4251871;33;20030;-70
2022/12/03 06:22:57;;;;;;;46.30;16.30;;;;;;;-1.03;100.00;99759.66;4237261;33;20072;-70
2022/12/03 06:25:24;;;;;;;46.37;16.45;;;;;;;-1.48;100.00;99727.16;4235425;33;20195;-68
2022/12/03 06:27:50;;;;;;;51.90;15.98;;;;;;;-1.03;100.00;99775.50;4237450;33;20050;-69
2022/12/03 06:30:17;;;;;;;46.45;15.90;;;;;;;-1.05;100.00;99761.59;4237467;33;20034;-69
2022/12/03 06:32:44;;;;;;;48.63;18.75;;;;;;;-1.13;100.00;99765.88;4259282;33;20100;-70
2022/12/03 06:35:11;;;;;;;47.90;17.37;;;;;;;-1.30;100.00;99769.38;4264944;33;20077;-69
2022/12/03 06:37:37;;;;;;;52.95;18.10;;;;;;;-0.98;100.00;99767.94;4261499;33;20034;-69
2022/12/03 06:40:05;;;;;;;45.65;17.80;;;;;;;-1.16;100.00;99776.75;4252019;33;20114;-71
2022/12/03 06:42:31;;;;;;;52.50;16.02;;;;;;;-1.04;100.00;99768.56;4224815;33;20057;-71
2022/12/03 06:44:57;;;;;;;43.65;17.25;;;;;;;-1.06;100.00;99767.91;4226357;34;20060;-72
2022/12/03 06:47:24;;;;;;;49.50;17.60;;;;;;;-1.11;100.00;99757.78;4223467;34;20173;-71
2022/12/03 06:49:50;;;;;;;52.62;16.90;;;;;;;-1.07;100.00;99774.16;4226144;34;20401;-73
2022/12/03 06:52:17;;;;;;;44.45;15.23;;;;;;;-1.19;100.00;99745.34;4225476;34;20475;-72
2022/12/03 06:54:48;;;;;;;46.33;18.20;;;;;;;-1.38;100.00;99766.69;4226062;34;20123;-71
2022/12/03 06:57:18;;;;;;;51.00;18.12;;;;;;;-1.00;100.00;99764.63;4224131;34;20064;-71
2022/12/03 06:59:44;;;;;;;46.10;17.77;;;;;;;-1.00;100.00;99760.16;4227322;33;20064;-71
2022/12/03 07:02:11;;;;;;;50.95;19.58;;;;;;;-0.99;100.00;99766.28;4237743;33;20070;-72
2022/12/03 07:04:37;;;;;;;43.55;16.05;;;;;;;-1.10;100.00;99773.50;4239089;33;20157;-73
2022/12/03 07:07:04;;;;;;;53.22;18.62;;;;;;;-1.26;100.00;99739.03;4236044;33;20034;-72
2022/12/03 07:09:30;;;;;;;57.25;19.50;;;;;;;-1.18;100.00;99747.00;4236154;33;20046;-72
2022/12/03 07:11:57;;;;;;;53.75;19.77;;;;;;;-1.30;100.00;99758.81;4239208;33;20058;-72
2022/12/03 07:14:24;;;;;;;53.28;21.23;;;;;;;-1.38;100.00;99758.78;4240058;33;20076;-71
2022/12/03 07:16:50;;;;;;;63.35;19.87;;;;;;;-1.48;100.00;99730.62;4232843;33;20046;-71
2022/12/03 07:19:16;;;;;;;51.58;19.40;;;;;;;-1.30;100.00;99764.09;4241984;33;20109;-70
2022/12/03 07:21:43;;;;;;;56.03;20.52;;;;;;;-1.68;100.00;99713.31;4265028;33;20190;-71
2022/12/03 07:24:10;;;;;;;51.13;19.37;;;;;;;-1.18;100.00;99765.50;4265782;33;20104;-70
2022/12/03 07:26:36;;;;;;;43.30;15.90;;;;;;;-1.37;100.00;99758.63;4260876;33;20038;-71
2022/12/03 07:29:03;;;;;;;52.97;18.40;;;;;;;-1.21;100.00;99730.62;4256987;33;20056;-71
2022/12/03 07:31:29;;;;;;;54.63;18.70;;;;;;;-1.12;100.00;99764.91;4237441;33;20477;-71
2022/12/03 07:33:55;;;;;;;51.85;19.20;;;;;;;-1.10;100.00;99744.41;4237359;33;20050;-71
2022/12/03 07:36:22;;;;;;;49.72;19.83;;;;;;;-1.01;100.00;99749.75;4238229;33;20038;-71
2022/12/03 07:38:48;;;;;;;63.97;18.75;;;;;;;-1.14;100.00;99711.34;4237352;33;20046;-71
2022/12/03 07:41:15;;;;;;;54.72;19.62;;;;;;;-1.18;100.00;99714.44;4234535;33;20055;-71
2022/12/03 07:43:43;;;;;;;52.50;17.98;;;;;;;-1.11;100.00;99753.31;4233952;33;20054;-71
2022/12/03 07:46:09;;;;;;;53.67;20.58;;;;;;;-1.10;100.00;99712.69;4229849;33;20393;-71
2022/12/03 07:48:36;;;;;;;55.65;18.00;;;;;;;-1.08;100.00;99740.78;4233652;33;20039;-71
2022/12/03 07:51:03;;;;;;;59.03;20.42;;;;;;;-0.89;100.00;99747.66;4212238;34;20054;-71
2022/12/03 07:53:30;;;;;;;69.00;21.25;;;;;;;-0.81;100.00;99753.81;4219727;33;20057;-71
2022/12/03 07:55:56;;;;;;;52.05;18.87;;;;;;;-1.19;100.00;99708.34;4195956;34;20031;-71
2022/12/03 07:58:23;;;;;;;49.00;18.15;;;;;;;-1.18;100.00;99720.59;4163982;34;20060;-71
2022/12/03 08:00:49;;;;;;;53.47;19.90;;;;;;;-1.12;100.00;99743.75;4155551;34;20056;-72
2022/12/03 08:03:16;;;;;;;55.10;20.17;;;;;;;-0.93;100.00;99749.78;4166184;34;20101;-73
2022/12/03 08:05:42;;;;;;;55.58;18.85;;;;;;;-0.94;100.00;99748.16;4161084;34;20105;-72
2022/12/03 08:08:08;;;;;;;41.80;17.25;;;;;;;-1.23;100.00;99707.00;4153951;34;20056;-73
2022/12/03 08:10:35;;;;;;;55.97;17.65;;;;;;;-1.00;100.00;99754.06;4174814;34;20041;-73
2022/12/03 08:13:05;;;;;;;44.90;17.73;;;;;;;-0.65;100.00;99762.81;4163142;34;20040;-74
2022/12/03 08:15:31;;;;;;;50.33;19.02;;;;;;;-0.57;100.00;99753.09;4164783;34;20068;-72
2022/12/03 08:18:03;;;;;;;45.50;19.30;;;;;;;-0.81;100.00;99706.22;4165943;34;20105;-73
2022/12/03 08:20:36;;;;;;;42.13;17.30;;;;;;;-0.65;100.00;99757.53;4169200;34;20116;-74
2022/12/03 08:23:10;;;;;;;54.65;18.33;;;;;;;-0.66;100.00;99750.56;4167823;34;20036;-74
2022/12/03 08:25:36;;;;;;;50.88;18.60;;;;;;;-0.99;100.00;99723.97;4166672;34;20040;-73
2022/12/03 08:28:30;;;;;;;49.13;17.98;;;;;;;-0.62;100.00;99767.78;4195977;34;20417;-74
2022/12/03 08:31:01;;;;;;;46.70;18.10;;;;;;;-0.43;100.00;99767.53;4206834;34;20047;-73
2022/12/03 08:33:34;;;;;;;58.15;18.23;;;;;;;-0.38;100.00;99754.63;4194210;34;20521;-73
2022/12/03 08:36:10;;;;;;;53.00;18.48;;;;;;;-0.31;100.00;99760.09;4196120;34;20192;-73
2022/12/03 08:38:37;;;;;;;56.55;19.33;;;;;;;-0.50;100.00;99760.38;4199986;34;20105;-73
2022/12/03 08:41:12;;;;;;;47.88;17.48;;;;;;;-0.26;100.00;99757.81;4208424;34;20069;-72
2022/12/03 08:43:41;;;;;;;44.50;18.62;;;;;;;-0.04;100.00;99761.66;4209704;34;20125;-73
2022/12/03 08:46:16;;;;;;;50.25;18.42;;;;;;;-0.53;100.00;99729.78;4210438;34;20034;-73
2022/12/03 08:48:44;;;;;;;51.40;18.23;;;;;;;-0.10;100.00;99754.34;4209165;34;20440;-72
2022/12/03 08:51:24;;;;;;;49.50;17.75;;;;;;;0.12;100.00;99770.63;4199523;34;20200;-72
2022/12/03 08:53:58;;;;;;;54.95;19.50;;;;;;;-0.23;100.00;99740.78;4204799;34;20069;-73
2022/12/03 08:56:26;;;;;;;39.58;18.23;;;;;;;-0.31;100.00;99764.59;4201210;34;20220;-73
2022/12/03 08:59:14;;;;;;;49.20;19.62;;;;;;;-0.51;100.00;99727.81;4189051;34;20039;-73
2022/12/03 09:01:42;;;;;;;54.63;20.02;;;;;;;-0.44;100.00;99757.94;4197309;34;20118;-73
2022/12/03 09:04:28;;;;;;;46.40;19.23;;;;;;;-0.64;100.00;99724.78;4219636;33;20046;-73
2022/12/03 09:06:55;;;;;;;58.63;22.30;;;;;;;-0.18;100.00;99733.19;4242927;33;20072;-73
2022/12/03 09:09:23;;;;;;;53.03;19.37;;;;;;;-0.34;100.00;99759.59;4252833;33;20415;-73
2022/12/03 09:11:50;;;;;;;47.20;18.80;;;;;;;-0.30;100.00;99766.22;4251750;33;20034;-74
2022/12/03 09:14:19;;;;;;;41.63;16.52;;;;;;;-0.23;100.00;99757.47;4250569;33;20357;-73
2022/12/03 09:16:47;;;;;;;52.13;19.27;;;;;;;-0.43;100.00;99751.66;4251971;33;20057;-73
2022/12/03 09:19:14;;;;;;;49.20;19.00;;;;;;;-0.24;100.00;99762.94;4252232;33;20373;-73
2022/12/03 09:21:40;;;;;;;50.00;20.40;;;;;;;-0.25;100.00;99721.59;4251681;33;20201;-73
2022/12/03 09:24:07;;;;;;;54.53;19.17;;;;;;;-0.35;100.00;99716.44;4252317;33;20406;-73
2022/12/03 09:26:33;;;;;;;46.95;20.62;;;;;;;-0.13;100.00;99707.03;4249536;33;20037;-71
2022/12/03 09:29:00;;;;;;;45.08;18.75;;;;;;;-0.14;100.00;99675.44;4251717;33;20093;-73
2022/12/03 09:31:26;;;;;;;50.53;19.73;;;;;;;-0.05;100.00;99743.28;4252009;33;20049;-72
2022/12/03 09:33:53;;;;;;;53.22;23.30;;;;;;;0.15;100.00;99738.53;4236135;33;20031;-72
2022/12/03 09:36:19;;;;;;;56.75;20.05;;;;;;;-0.37;100.00;99707.81;4243491;33;20386;-74
2022/12/03 09:38:46;;;;;;;48.47;21.40;;;;;;;0.15;100.00;99730.56;4250057;33;20050;-73
2022/12/03 09:41:12;;;;;;;58.08;19.50;;;;;;;-0.11;100.00;99697.13;4251694;33;20065;-74
2022/12/03 09:43:39;;;;;;;46.42;19.33;;;;;;;0.44;100.00;99731.91;4252097;33;20060;-74
2022/12/03 09:46:06;;;;;;;58.75;21.85;;;;;;;0.41;100.00;99695.13;4248002;33;20046;-74
2022/12/03 09:48:34;;;;;;;61.85;22.30;;;;;;;0.31;100.00;99705.91;4250182;33;20178;-74
2022/12/03 09:51:01;;;;;;;49.85;20.50;;;;;;;0.21;100.00;99699.94;4250501;33;20482;-73
2022/12/03 09:53:28;;;;;;;51.95;19.15;;;;;;;0.54;100.00;99727.25;4250761;33;20056;-73
2022/12/03 09:55:58;;;;;;;51.70;22.42;;;;;;;0.48;100.00;99727.91;4251844;33;20055;-73
2022/12/03 09:58:26;;;;;;;50.17;20.42;;;;;;;0.44;100.00;99722.12;4251740;33;20063;-73
2022/12/03 10:00:53;;;;;;;44.80;18.42;;;;;;;0.22;100.00;99691.00;4249332;33;20069;-69
2022/12/03 10:03:23;;;;;;;56.50;20.12;;;;;;;0.46;100.00;99724.59;4251475;33;20090;-70
2022/12/03 10:05:50;;;;;;;54.00;20.58;;;;;;;0.27;100.00;99723.12;4250239;33;20034;-70
2022/12/03 10:08:20;;;;;;;59.40;20.55;;;;;;;0.16;100.00;99681.87;4251149;33;20071;-70
2022/12/03 10:10:50;;;;;;;51.45;20.10;;;;;;;0.39;100.00;99711.19;4253457;33;20437;-69
2022/12/03 10:13:29;;;;;;;54.15;21.40;;;;;;;0.40;100.00;99712.00;4263309;33;20091;-70
2022/12/03 10:15:59;;;;;;;55.53;21.35;;;;;;;0.56;100.00;99717.31;4256481;33;20121;-69
2022/12/03 10:18:29;;;;;;;55.35;21.37;;;;;;;0.86;100.00;99706.97;4264320;33;20038;-68
2022/12/03 10:20:56;;;;;;;49.30;19.33;;;;;;;0.87;100.00;99671.50;4266060;33;20049;-69
2022/12/03 10:23:26;;;;;;;54.05;23.25;;;;;;;0.34;100.00;99685.19;4264615;33;20408;-69
2022/12/03 10:25:56;;;;;;;54.45;21.27;;;;;;;0.43;100.00;99693.97;4265890;33;20029;-68
2022/12/03 10:28:31;;;;;;;50.75;20.17;;;;;;;0.46;100.00;99714.00;4264686;33;20194;-68
2022/12/03 10:30:59;;;;;;;51.78;21.02;;;;;;;0.54;100.00;99687.47;4265917;33;20062;-69
2022/12/03 10:33:32;;;;;;;55.50;23.17;;;;;;;0.41;100.00;99689.84;4265993;33;20045;-69
2022/12/03 10:36:18;;;;;;;49.92;18.58;;;;;;;0.36;100.00;99711.53;4266885;33;20034;-68
2022/12/03 10:38:45;;;;;;;51.83;19.95;;;;;;;0.60;100.00;99721.28;4281990;33;20057;-70
2022/12/03 10:41:26;;;;;;;50.50;21.35;;;;;;;0.60;100.00;99726.56;4276455;33;20079;-69
2022/12/03 10:43:53;;;;;;;48.70;21.55;;;;;;;0.69;100.00;99725.56;4280203;33;20042;-68
2022/12/03 10:46:26;;;;;;;47.22;20.15;;;;;;;0.33;100.00;99683.53;4276169;33;20128;-70
2022/12/03 10:49:19;;;;;;;54.90;20.62;;;;;;;0.48;100.00;99714.66;4280558;33;20052;-70
2022/12/03 10:51:47;;;;;;;52.25;20.00;;;;;;;0.87;100.00;99716.59;4259270;33;20059;-69
2022/12/03 10:54:21;;;;;;;55.40;23.67;;;;;;;0.70;100.00;99721.94;4265091;33;20113;-70
2022/12/03 10:56:53;;;;;;;58.10;22.37;;;;;;;0.47;100.00;99694.47;4263543;33;20038;-70
2022/12/03 10:59:23;;;;;;;57.95;22.65;;;;;;;0.16;100.00;99724.25;4263769;33;20445;-69
2022/12/03 11:01:50;;;;;;;53.35;21.77;;;;;;;0.16;100.00;99719.81;4259940;33;20029;-71
2022/12/03 11:04:29;;;;;;;35.50;13.90;;;;;;;-0.24;100.00;99728.53;4262274;33;20383;-70
2022/12/03 11:06:56;;;;;;;58.65;23.02;;;;;;;-0.46;100.00;99714.94;4263404;33;20038;-70
2022/12/03 11:09:43;;;;;;;45.88;19.00;;;;;;;-0.30;100.00;99715.94;4266019;33;20365;-69
2022/12/03 11:12:24;;;;;;;50.20;19.90;;;;;;;-0.58;100.00;99684.47;4265356;33;20029;-71
2022/12/03 11:14:53;;;;;;;47.13;19.48;;;;;;;-0.28;100.00;99706.84;4267993;33;20088;-69
2022/12/03 11:17:52;;;;;;;51.22;18.48;;;;;;;0.05;100.00;99706.91;4273305;33;20397;-70
2022/12/03 11:20:19;;;;;;;49.60;21.23;;;;;;;0.29;100.00;99707.91;4211811;34;20061;-70
2022/12/03 11:22:51;;;;;;;52.40;21.15;;;;;;;0.23;100.00;99706.72;4212387;34;20043;-70
2022/12/03 11:25:23;;;;;;;55.58;21.35;;;;;;;0.20;100.00;99698.31;4219076;34;20084;-70
2022/12/03 11:28:12;;;;;;;56.55;22.52;;;;;;;0.50;100.00;99704.72;4220010;33;20064;-70
2022/12/03 11:30:47;;;;;;;54.88;21.75;;;;;;;0.39;100.00;99713.03;4223986;34;20062;-70
2022/12/03 11:33:22;;;;;;;66.93;22.33;;;;;;;0.56;100.00;99704.06;4224039;34;20176;-70
2022/12/03 11:36:02;;;;;;;52.53;21.87;;;;;;;0.47;100.00;99678.56;4223739;34;20064;-69
2022/12/03 11:38:39;;;;;;;57.38;22.33;;;;;;;0.33;100.00;99710.03;4197730;34;20043;-71
2022/12/03 11:41:30;;;;;;;62.47;23.87;;;;;;;-0.29;100.00;99705.19;4197292;34;20052;-70
2022/12/03 11:43:59;;;;;;;61.70;21.77;;;;;;;0.09;100.00;99707.41;4187176;34;20484;-71
2022/12/03 11:46:35;;;;;;;64.30;22.65;;;;;;;0.05;100.00;99700.75;4182903;34;20434;-74
2022/12/03 11:49:22;;;;;;;65.97;25.70;;;;;;;0.04;100.00;99693.84;4182201;34;20063;-72
2022/12/03 11:51:56;;;;;;;75.22;24.87;;;;;;;0.13;100.00;99691.00;4183228;34;20048;-74
2022/12/03 11:54:23;;;;;;;57.47;21.65;;;;;;;0.10;100.00;99682.59;4180121;34;20132;-74
2022/12/03 11:56:51;;;;;;;60.97;22.10;;;;;;;0.21;100.00;99690.19;4187332;34;20678;-73
2022/12/03 11:59:18;;;;;;;53.30;22.58;;;;;;;0.12;100.00;99685.88;4195049;34;20079;-74
2022/12/03 12:01:46;;;;;;;59.53;23.35;;;;;;;0.06;100.00;99644.19;4299547;28;20060;-74
2022/12/03 12:04:36;;;;;;;58.08;21.08;;;;;;;0.11;100.00;99657.72;4167129;34;20481;-74
2022/12/03 12:07:03;;;;;;;55.20;21.60;;;;;;;0.67;100.00;99671.91;4166418;34;20064;-74
2022/12/03 12:09:49;;;;;;;50.03;20.85;;;;;;;0.18;100.00;99611.06;4165176;34;20036;-74
2022/12/03 12:12:30;;;;;;;54.10;21.50;;;;;;;0.61;100.00;99651.37;4185435;34;20072;-74
2022/12/03 12:14:58;;;;;;;60.33;22.33;;;;;;;0.20;100.00;99677.94;4206262;34;20032;-75
2022/12/03 12:17:35;;;;;;;60.40;22.62;;;;;;;-0.45;100.00;99646.97;4217948;33;20089;-74
2022/12/03 12:20:26;;;;;;;55.75;22.50;;;;;;;-0.13;100.00;99677.09;4232114;33;20147;-74
2022/12/03 12:22:54;;;;;;;58.35;22.58;;;;;;;-0.07;100.00;99679.91;4215377;34;20054;-75
2022/12/03 12:25:38;;;;;;;54.10;21.65;;;;;;;0.02;100.00;99682.56;4206667;34;20050;-74
2022/12/03 12:28:10;;;;;;;55.92;21.90;;;;;;;0.25;100.00;99638.53;4212642;34;20068;-75
2022/12/03 12:30:42;;;;;;;61.03;22.42;;;;;;;0.06;100.00;99676.75;4207131;34;20059;-75
2022/12/03 12:33:25;;;;;;;58.08;22.13;;;;;;;0.26;100.00;99687.03;4233275;33;20185;-74
2022/12/03 12:35:54;;;;;;;60.65;21.90;;;;;;;0.56;100.00;99687.31;4247110;33;20161;-74
2022/12/03 12:38:23;;;;;;;64.78;22.92;;;;;;;0.29;100.00;99682.22;4251521;33;20105;-73
2022/12/03 12:40:53;;;;;;;52.28;22.70;;;;;;;0.20;100.00;99693.00;4243561;33;20034;-73
2022/12/03 12:43:31;;;;;;;60.47;23.77;;;;;;;0.30;100.00;99689.19;4219803;33;20066;-74
2022/12/03 12:46:04;;;;;;;57.50;22.67;;;;;;;0.17;100.00;99689.66;4222649;34;20051;-74
2022/12/03 12:48:38;;;;;;;51.65;21.90;;;;;;;0.20;100.00;99699.13;4223246;34;20031;-73
2022/12/03 12:51:19;;;;;;;70.00;22.73;;;;;;;0.12;100.00;99683.22;4222715;33;20052;-74
2022/12/03 12:53:52;;;;;;;59.85;23.17;;;;;;;0.13;100.00;99653.13;4217132;33;20064;-73
2022/12/03 12:56:31;;;;;;;65.32;22.58;;;;;;;0.33;100.00;99672.13;4221495;33;20054;-73
2022/12/03 12:59:40;;;;;;;68.10;24.65;;;;;;;0.25;100.00;99654.41;4194157;34;20035;-74
2022/12/03 13:02:30;;;;;;;65.35;24.63;;;;;;;0.44;100.00;99684.19;4174465;34;20175;-75
2022/12/03 13:05:10;;;;;;;77.32;27.73;;;;;;;0.14;100.00;99645.00;4165697;34;20040;-74
2022/12/03 13:07:36;;;;;;;68.78;24.60;;;;;;;0.18;100.00;99685.22;4166502;34;20028;-75
2022/12/03 13:10:29;;;;;;;72.12;27.83;;;;;;;0.32;100.00;99681.91;4168062;34;20047;-75
2022/12/03 13:12:56;;;;;;;65.35;24.63;;;;;;;0.43;100.00;99687.84;4165003;34;20122;-74
2022/12/03 13:15:58;;;;;;;78.85;29.15;;;;;;;0.26;100.00;99682.56;4166683;34;20554;-75
2022/12/03 13:18:52;;;;;;;68.10;25.00;;;;;;;0.41;100.00;99684.53;4166136;34;20430;-74
2022/12/03 13:21:21;;;;;;;73.55;27.27;;;;;;;0.49;100.00;99676.56;4166080;34;20537;-75
2022/12/03 13:23:50;;;;;;;69.60;26.35;;;;;;;-0.07;100.00;99687.84;4166970;34;20031;-75
2022/12/03 13:26:21;;;;;;;78.82;29.37;;;;;;;-0.01;100.00;99692.50;4161480;34;20066;-74
2022/12/03 13:28:49;;;;;;;81.35;28.50;;;;;;;-0.09;100.00;99684.56;4139910;34;20107;-74
2022/12/03 13:31:25;;;;;;;65.40;23.80;;;;;;;0.04;100.00;99681.41;4166253;34;20507;-75
2022/12/03 13:33:54;;;;;;;65.40;24.60;;;;;;;0.38;100.00;99679.56;4215867;34;20038;-75
2022/12/03 13:36:34;;;;;;;81.95;27.05;;;;;;;0.18;100.00;99666.69;4203587;34;20059;-75
2022/12/03 13:39:14;;;;;;;78.03;26.37;;;;;;;0.36;100.00;99683.19;4208059;34;20078;-74
2022/12/03 13:44:29;;;;;;;69.93;25.00;;;;;;;0.29;100.00;99676.94;4237387;33;20042;-75